Terminal Aerodrome Forecast
Issued by NWS

Home | Current Version | Previous Version | Text Only | Print | Product List | Glossary On
Versions: 1 2 3 4 5 6 7 8 9 10 11 12 13 14 15
000
FTUS42 KMLB 231516 AAA
TAFSFB
TAF AMD
KSFB 231516Z 2315/2412 21008KT P6SM VCSH SCT035 SCT140 BKN200
     FM231600 22007KT P6SM VCTS SCT040CB SCT080 BKN120
      TEMPO 2316/2318 3SM TSRA BKN030CB BKN080
     FM232300 VRB05KT P6SM SCT040 BKN100
     FM240200 VRB02KT P6SM BKN200=

USA.gov is the U.S. government's official web portal to all federal, state and local government web resources and services.